Terminal Aerodrome Forecast
Issued by NWS

Home | Current Version | Previous Version | Graphics & Text | Print | Product List | Glossary On
Versions: 1 2 3 4 5 6 7 8 9 10 11 12 13 14 15 16 17
000
FTUS43 KICT 280522
TAFRSL
TAF
KRSL 280522Z 2806/2906 08015G22KT P6SM VCTS OVC030CB
      TEMPO 2806/2807 VRB20G35KT 2SM +TSRA OVC015CB
     FM280700 10013KT 5SM SHRA OVC015
     FM280900 11012KT 4SM BR OVC007
     FM281200 12007KT 2SM BR OVC004
     FM281500 VRB04KT P6SM BKN016
     FM281800 36007KT P6SM SCT025
     FM282300 03014G20KT P6SM OVC020=

USA.gov is the U.S. government's official web portal to all federal, state and local government web resources and services.